Terminal Aerodrome Forecast
Issued by NWS

Home | Current Version | Previous Version | Text Only | Print | Product List | Glossary On
Versions: 1 2 3 4 5 6 7 8 9 10 11 12 13 14 15
000
FTUS43 KGRB 061723
TAFAUW
TAF
KAUW 061723Z 0618/0718 20008KT P6SM -SHRA SCT007 OVC090
      TEMPO 0618/0621 3SM SHRA BR BKN007
     FM062100 24009KT P6SM -SHRA SCT007 OVC015
      TEMPO 0621/0624 1SM +TSRA BR BKN007CB
     FM070000 34012KT 5SM SHRA BR BKN007 OVC040
     FM070300 34009KT 6SM -SHRA BR BKN015
     FM070600 33008KT P6SM SCT008 OVC015
     FM071400 35010KT P6SM SCT025=

USA.gov is the U.S. government's official web portal to all federal, state and local government web resources and services.